Time;durP1;ratioP1;P1;durP2;ratioP2;P2;SDS_P1;SDS_P2;PMS_P1;PMS_P2;Temp;Humidity;BMP_temperature;BMP_pressure;BME280_temperature;BME280_humidity;BME280_pressure;Samples;Min_cycle;Max_cycle;Signal;HPM_P1;HPM_P2
2021/07/06 00:00:21;;;;;;;3.30;3.10;;;;;;;;;;5073405;28;20442;-69
2021/07/06 00:02:50;;;;;;;3.57;3.20;;;;;;;;;;5073492;28;20450;-69
2021/07/06 00:05:18;;;;;;;3.77;3.47;;;;;;;;;;5073639;28;20449;-69
2021/07/06 00:07:46;;;;;;;3.87;3.57;;;;;;;;;;5073617;28;20528;-69
2021/07/06 00:10:14;;;;;;;3.80;3.07;;;;;;;;;;5073417;28;20455;-69
2021/07/06 00:12:42;;;;;;;2.90;2.70;;;;;;;;;;5073551;28;20441;-69
2021/07/06 00:15:12;;;;;;;7.80;7.00;;;;;;;;;;5073063;28;20473;-69
2021/07/06 00:17:39;;;;;;;3.10;2.63;;;;;;;;;;5073290;28;20516;-69
2021/07/06 00:20:08;;;;;;;3.50;3.20;;;;;;;;;;5073434;28;20524;-69
2021/07/06 00:22:35;;;;;;;4.13;3.60;;;;;;;;;;5073427;28;20792;-69
2021/07/06 00:25:02;;;;;;;2.87;2.67;;;;;;;;;;5073483;28;20441;-69
2021/07/06 00:27:29;;;;;;;2.23;2.03;;;;;;;;;;5063632;28;20536;-69
2021/07/06 00:29:57;;;;;;;2.77;2.57;;;;;;;;;;5053584;28;20448;-69
2021/07/06 00:32:25;;;;;;;2.50;2.30;;;;;;;;;;5053379;28;20529;-68
2021/07/06 00:34:52;;;;;;;3.00;2.70;;;;;;;;;;5053805;28;20658;-69
2021/07/06 00:37:20;;;;;;;2.90;2.23;;;;;;;;;;5053258;28;20448;-69
2021/07/06 00:39:47;;;;;;;2.70;2.50;;;;;;;;;;5053442;28;20837;-69
2021/07/06 00:42:14;;;;;;;3.20;2.50;;;;;;;;;;5053171;28;20446;-69
2021/07/06 00:44:41;;;;;;;2.50;2.33;;;;;;;;;;5053650;28;20450;-69
2021/07/06 00:47:09;;;;;;;2.80;2.60;;;;;;;;;;5053517;28;20473;-69
2021/07/06 00:49:37;;;;;;;2.27;2.17;;;;;;;;;;5053102;28;20437;-69
2021/07/06 00:52:05;;;;;;;2.70;2.50;;;;;;;;;;5053111;28;20445;-69
2021/07/06 00:54:33;;;;;;;2.43;2.33;;;;;;;;;;5052783;28;20513;-69
2021/07/06 00:57:01;;;;;;;6.03;3.00;;;;;;;;;;5057644;28;20460;-69
2021/07/06 00:59:29;;;;;;;5.87;2.90;;;;;;;;;;5072879;28;20436;-69
2021/07/06 01:01:56;;;;;;;4.17;3.50;;;;;;;;;;5072522;28;20483;-70
2021/07/06 01:04:23;;;;;;;3.10;2.90;;;;;;;;;;5073120;28;20480;-70
2021/07/06 01:06:52;;;;;;;2.87;2.63;;;;;;;;;;5072723;28;20524;-69
2021/07/06 01:09:19;;;;;;;3.93;3.37;;;;;;;;;;5072715;28;20473;-69
2021/07/06 01:11:46;;;;;;;3.13;2.80;;;;;;;;;;5072706;28;20452;-69
2021/07/06 01:14:15;;;;;;;3.27;3.00;;;;;;;;;;5073088;28;20908;-69
2021/07/06 01:16:46;;;;;;;3.23;2.90;;;;;;;;;;5073246;28;20455;-70
2021/07/06 01:19:14;;;;;;;3.03;2.83;;;;;;;;;;5072620;28;20438;-69
2021/07/06 01:21:41;;;;;;;4.83;3.13;;;;;;;;;;5073458;28;20536;-69
2021/07/06 01:24:10;;;;;;;6.40;2.90;;;;;;;;;;5076460;28;20770;-70
2021/07/06 01:26:37;;;;;;;3.97;2.63;;;;;;;;;;5075216;28;20978;-70
2021/07/06 01:29:04;;;;;;;2.90;2.70;;;;;;;;;;5076056;28;20804;-69
2021/07/06 01:31:31;;;;;;;3.10;2.90;;;;;;;;;;5075903;28;20528;-69
2021/07/06 01:33:59;;;;;;;4.53;3.10;;;;;;;;;;5076251;28;20918;-70
2021/07/06 01:36:26;;;;;;;2.97;2.77;;;;;;;;;;5075878;28;20524;-69
2021/07/06 01:38:53;;;;;;;6.63;2.50;;;;;;;;;;5076143;28;20480;-69
2021/07/06 01:41:22;;;;;;;5.53;2.63;;;;;;;;;;5075837;28;20528;-69
2021/07/06 01:43:49;;;;;;;3.07;2.53;;;;;;;;;;5076222;28;20512;-69
2021/07/06 01:46:16;;;;;;;4.33;2.97;;;;;;;;;;5075918;28;20968;-69
2021/07/06 01:48:44;;;;;;;2.80;2.67;;;;;;;;;;5076040;28;20886;-69
2021/07/06 01:51:11;;;;;;;2.60;2.40;;;;;;;;;;5076004;28;20450;-70
2021/07/06 01:53:38;;;;;;;2.57;2.47;;;;;;;;;;5075753;28;20452;-70
2021/07/06 01:56:06;;;;;;;4.60;3.50;;;;;;;;;;5075487;28;20566;-70
2021/07/06 01:58:34;;;;;;;3.50;3.20;;;;;;;;;;5075822;28;20453;-70
2021/07/06 02:01:02;;;;;;;3.10;2.90;;;;;;;;;;5075494;28;20534;-70
2021/07/06 02:03:31;;;;;;;2.97;2.77;;;;;;;;;;5075921;28;20527;-70
2021/07/06 02:05:59;;;;;;;3.40;2.43;;;;;;;;;;5076193;28;20449;-70
2021/07/06 02:08:27;;;;;;;2.47;2.27;;;;;;;;;;5074066;28;20499;-70
2021/07/06 02:10:56;;;;;;;2.07;1.97;;;;;;;;;;5075782;28;20525;-70
2021/07/06 02:13:24;;;;;;;2.43;2.23;;;;;;;;;;5075390;28;20441;-70
2021/07/06 02:15:53;;;;;;;4.93;2.97;;;;;;;;;;5075261;28;20492;-70
2021/07/06 02:18:22;;;;;;;3.17;2.10;;;;;;;;;;5075467;28;20436;-70
2021/07/06 02:20:50;;;;;;;2.60;2.30;;;;;;;;;;5075384;28;20444;-70
2021/07/06 02:23:17;;;;;;;2.07;1.97;;;;;;;;;;5075354;28;20548;-70
2021/07/06 02:25:44;;;;;;;4.40;2.40;;;;;;;;;;5075732;28;20662;-70
2021/07/06 02:28:11;;;;;;;6.00;2.53;;;;;;;;;;5075346;28;20437;-70
2021/07/06 02:30:39;;;;;;;3.93;2.87;;;;;;;;;;5075477;28;20459;-70
2021/07/06 02:33:08;;;;;;;4.30;2.83;;;;;;;;;;5073564;28;20458;-70
2021/07/06 02:35:35;;;;;;;3.40;2.67;;;;;;;;;;5075047;28;20575;-70
2021/07/06 02:38:02;;;;;;;2.77;2.10;;;;;;;;;;5074839;28;21009;-70
2021/07/06 02:40:30;;;;;;;2.73;2.10;;;;;;;;;;5075044;28;20468;-70
2021/07/06 02:42:58;;;;;;;3.20;2.60;;;;;;;;;;5074640;28;21002;-70
2021/07/06 02:45:26;;;;;;;2.63;2.53;;;;;;;;;;5074958;28;20812;-70
2021/07/06 02:47:53;;;;;;;5.73;3.10;;;;;;;;;;5074302;28;20491;-70
2021/07/06 02:50:23;;;;;;;3.03;2.73;;;;;;;;;;5074894;28;20477;-70
2021/07/06 02:52:50;;;;;;;3.20;2.90;;;;;;;;;;5074630;28;20529;-70
2021/07/06 02:55:18;;;;;;;2.60;2.40;;;;;;;;;;5074992;28;20483;-70
2021/07/06 02:57:45;;;;;;;2.73;2.53;;;;;;;;;;5074416;28;20957;-70
2021/07/06 03:00:14;;;;;;;4.40;3.23;;;;;;;;;;5075017;28;20799;-70
2021/07/06 03:02:42;;;;;;;2.77;2.53;;;;;;;;;;5074306;28;20532;-70
2021/07/06 03:05:11;;;;;;;11.60;3.90;;;;;;;;;;5074721;28;20444;-70
2021/07/06 03:07:40;;;;;;;3.57;2.97;;;;;;;;;;5075087;28;20448;-70
2021/07/06 03:10:09;;;;;;;5.40;3.00;;;;;;;;;;5074329;28;20453;-70
2021/07/06 03:12:36;;;;;;;3.10;2.80;;;;;;;;;;5074377;28;20814;-70
2021/07/06 03:15:03;;;;;;;4.90;3.47;;;;;;;;;;5074334;28;20580;-70
2021/07/06 03:17:30;;;;;;;3.83;3.43;;;;;;;;;;5074247;28;20457;-70
2021/07/06 03:19:58;;;;;;;4.20;3.50;;;;;;;;;;5074256;28;20544;-70
2021/07/06 03:22:25;;;;;;;5.60;3.17;;;;;;;;;;5074193;28;20445;-70
2021/07/06 03:24:54;;;;;;;3.57;3.23;;;;;;;;;;5073846;28;20536;-70
2021/07/06 03:27:21;;;;;;;4.23;3.20;;;;;;;;;;5073280;28;20463;-70
2021/07/06 03:29:48;;;;;;;3.80;3.50;;;;;;;;;;5073798;28;20881;-70
2021/07/06 03:32:15;;;;;;;5.60;3.30;;;;;;;;;;5073904;28;20813;-70
2021/07/06 03:34:43;;;;;;;3.53;3.03;;;;;;;;;;5074663;28;20467;-70
2021/07/06 03:37:10;;;;;;;3.33;3.03;;;;;;;;;;5074383;28;20496;-70
2021/07/06 03:39:37;;;;;;;3.40;3.07;;;;;;;;;;5074047;28;20490;-70
2021/07/06 03:42:07;;;;;;;3.30;3.00;;;;;;;;;;5073432;28;20965;-69
2021/07/06 03:44:34;;;;;;;3.63;3.33;;;;;;;;;;5073859;28;20442;-70
2021/07/06 03:47:01;;;;;;;5.60;2.80;;;;;;;;;;5074113;28;20472;-70
2021/07/06 03:49:29;;;;;;;6.70;3.13;;;;;;;;;;5074022;28;20444;-70
2021/07/06 03:51:56;;;;;;;3.50;2.60;;;;;;;;;;5073718;28;20495;-69
2021/07/06 03:54:23;;;;;;;5.53;2.90;;;;;;;;;;5073531;28;20997;-69
2021/07/06 03:56:50;;;;;;;6.10;3.13;;;;;;;;;;5073723;28;20472;-69
2021/07/06 03:59:19;;;;;;;3.83;3.50;;;;;;;;;;5073454;28;20444;-69
2021/07/06 04:01:46;;;;;;;3.63;3.17;;;;;;;;;;5073379;28;20541;-70
2021/07/06 04:04:13;;;;;;;3.37;3.10;;;;;;;;;;5073375;28;20535;-69
2021/07/06 04:06:40;;;;;;;3.20;2.80;;;;;;;;;;5073367;28;20455;-70
2021/07/06 04:09:08;;;;;;;3.60;2.60;;;;;;;;;;5073735;28;20472;-69
2021/07/06 04:11:35;;;;;;;5.33;2.50;;;;;;;;;;5072688;28;20468;-69
2021/07/06 04:14:03;;;;;;;3.10;2.67;;;;;;;;;;5073569;28;20441;-69
2021/07/06 04:16:32;;;;;;;3.27;2.30;;;;;;;;;;5072906;28;20496;-70
2021/07/06 04:18:59;;;;;;;5.67;2.20;;;;;;;;;;5073200;28;20480;-71
2021/07/06 04:21:27;;;;;;;4.20;2.57;;;;;;;;;;5073517;28;20437;-71
2021/07/06 04:23:54;;;;;;;2.60;2.40;;;;;;;;;;5073472;28;20444;-72
2021/07/06 04:26:21;;;;;;;2.97;2.70;;;;;;;;;;5073111;28;20536;-70
2021/07/06 04:28:48;;;;;;;2.40;2.20;;;;;;;;;;5073148;28;20447;-71
2021/07/06 04:31:15;;;;;;;7.47;2.57;;;;;;;;;;5064925;28;20456;-71
2021/07/06 04:33:44;;;;;;;4.40;2.20;;;;;;;;;;5068910;28;20451;-71
2021/07/06 04:36:11;;;;;;;2.43;2.30;;;;;;;;;;5073166;28;20571;-71
2021/07/06 04:38:38;;;;;;;5.00;2.10;;;;;;;;;;5073483;28;20491;-71
2021/07/06 04:41:06;;;;;;;2.33;2.20;;;;;;;;;;5073010;28;20452;-71
2021/07/06 04:43:33;;;;;;;3.83;2.23;;;;;;;;;;5072960;28;20477;-71
2021/07/06 04:46:00;;;;;;;5.23;2.53;;;;;;;;;;5071725;28;20480;-70
2021/07/06 04:48:28;;;;;;;2.63;2.20;;;;;;;;;;5072830;28;20953;-71
2021/07/06 04:51:03;;;;;;;6.83;2.10;;;;;;;;;;5073249;28;20436;-70
2021/07/06 04:53:30;;;;;;;5.93;2.40;;;;;;;;;;5073201;28;20425;-70
2021/07/06 04:55:58;;;;;;;4.40;2.40;;;;;;;;;;5073104;28;21067;-70
2021/07/06 04:58:27;;;;;;;3.37;1.90;;;;;;;;;;5076572;28;20502;-70
2021/07/06 05:00:54;;;;;;;2.87;2.00;;;;;;;;;;5076856;28;20532;-71
2021/07/06 05:03:21;;;;;;;2.93;2.10;;;;;;;;;;5076664;28;20447;-70
2021/07/06 05:05:48;;;;;;;3.47;2.37;;;;;;;;;;5076798;28;20532;-70
2021/07/06 05:08:17;;;;;;;4.37;2.10;;;;;;;;;;5076874;28;20930;-70
2021/07/06 05:10:44;;;;;;;2.80;2.30;;;;;;;;;;5076910;28;20440;-70
2021/07/06 05:13:12;;;;;;;2.20;2.10;;;;;;;;;;5076709;28;20433;-70
2021/07/06 05:15:39;;;;;;;5.03;2.30;;;;;;;;;;5076570;28;20480;-70
2021/07/06 05:18:06;;;;;;;5.50;2.90;;;;;;;;;;5076024;28;20968;-70
2021/07/06 05:20:33;;;;;;;2.43;2.23;;;;;;;;;;5076171;28;20438;-70
2021/07/06 05:23:01;;;;;;;2.50;2.30;;;;;;;;;;5076067;28;20956;-71
2021/07/06 05:25:29;;;;;;;3.43;2.20;;;;;;;;;;5075524;28;20539;-71
2021/07/06 05:27:56;;;;;;;3.23;1.83;;;;;;;;;;5075845;28;20461;-71
2021/07/06 05:30:24;;;;;;;3.20;2.47;;;;;;;;;;5076291;28;20443;-69
2021/07/06 05:32:51;;;;;;;4.60;3.40;;;;;;;;;;5076109;28;20477;-71
2021/07/06 05:35:18;;;;;;;4.40;1.90;;;;;;;;;;5075921;28;20533;-71
2021/07/06 05:37:45;;;;;;;4.17;2.40;;;;;;;;;;5075579;28;20947;-71
2021/07/06 05:40:13;;;;;;;3.27;2.97;;;;;;;;;;5075827;28;20468;-71
2021/07/06 05:42:42;;;;;;;2.40;2.20;;;;;;;;;;5076382;28;20530;-71
2021/07/06 05:45:09;;;;;;;3.83;2.60;;;;;;;;;;5076021;28;20472;-71
2021/07/06 05:47:38;;;;;;;2.20;2.00;;;;;;;;;;5075965;28;20479;-71
2021/07/06 05:50:06;;;;;;;6.40;2.67;;;;;;;;;;5075692;28;20456;-71
2021/07/06 05:52:33;;;;;;;3.13;2.77;;;;;;;;;;5075989;28;20453;-71
2021/07/06 05:55:01;;;;;;;3.67;2.47;;;;;;;;;;5076088;28;20448;-71
2021/07/06 05:57:30;;;;;;;5.83;2.57;;;;;;;;;;5075951;28;20488;-71
2021/07/06 05:59:59;;;;;;;3.50;2.40;;;;;;;;;;5075855;28;20574;-71
2021/07/06 06:02:26;;;;;;;2.47;2.27;;;;;;;;;;5075012;28;20991;-71
2021/07/06 06:04:53;;;;;;;2.50;2.30;;;;;;;;;;5075649;28;20461;-71
2021/07/06 06:07:22;;;;;;;2.40;2.20;;;;;;;;;;5075491;28;20446;-71
2021/07/06 06:09:49;;;;;;;3.80;2.23;;;;;;;;;;5075355;28;20482;-71
2021/07/06 06:12:16;;;;;;;122.13;65.20;;;;;;;;;;5075587;28;20442;-71
2021/07/06 06:14:43;;;;;;;6.70;3.80;;;;;;;;;;5075538;28;20445;-71
2021/07/06 06:17:12;;;;;;;5.80;4.60;;;;;;;;;;5076022;28;20669;-71
2021/07/06 06:19:40;;;;;;;2.70;2.50;;;;;;;;;;5075507;28;20441;-70
2021/07/06 06:22:07;;;;;;;2.87;2.40;;;;;;;;;;5074823;28;20466;-71
2021/07/06 06:24:34;;;;;;;3.63;2.40;;;;;;;;;;5075365;28;20484;-71
2021/07/06 06:27:02;;;;;;;3.20;2.10;;;;;;;;;;5074964;28;20541;-71
2021/07/06 06:29:30;;;;;;;5.97;2.33;;;;;;;;;;5075264;28;20439;-70
2021/07/06 06:31:57;;;;;;;4.13;2.70;;;;;;;;;;5074934;28;20445;-70
2021/07/06 06:34:25;;;;;;;3.80;2.47;;;;;;;;;;5074762;28;20528;-71
2021/07/06 06:36:53;;;;;;;4.57;2.80;;;;;;;;;;5075081;28;20473;-71
2021/07/06 06:39:21;;;;;;;3.50;2.30;;;;;;;;;;5075048;28;20528;-71
2021/07/06 06:41:49;;;;;;;4.70;2.40;;;;;;;;;;5075009;28;20465;-71
2021/07/06 06:44:16;;;;;;;3.80;2.30;;;;;;;;;;5074572;28;20453;-71
2021/07/06 06:46:43;;;;;;;2.20;2.00;;;;;;;;;;5074947;28;20481;-71
2021/07/06 06:49:10;;;;;;;2.53;2.13;;;;;;;;;;5074929;28;20438;-71
2021/07/06 06:51:39;;;;;;;4.97;2.30;;;;;;;;;;5074835;28;20443;-71
2021/07/06 06:54:06;;;;;;;2.80;2.60;;;;;;;;;;5074753;28;20495;-71
2021/07/06 06:56:35;;;;;;;2.83;2.00;;;;;;;;;;5074715;28;20484;-71
2021/07/06 06:59:03;;;;;;;3.70;2.20;;;;;;;;;;5074369;28;20453;-69
2021/07/06 07:01:30;;;;;;;2.40;2.20;;;;;;;;;;5074398;28;20474;-70
2021/07/06 07:03:57;;;;;;;3.10;2.00;;;;;;;;;;5074338;28;20452;-70
2021/07/06 07:06:24;;;;;;;2.63;2.43;;;;;;;;;;5074820;28;21032;-70
2021/07/06 07:08:53;;;;;;;2.37;2.17;;;;;;;;;;5074462;28;20552;-70
2021/07/06 07:11:20;;;;;;;2.07;1.97;;;;;;;;;;5074080;28;20950;-70
2021/07/06 07:13:48;;;;;;;3.37;2.00;;;;;;;;;;5074210;28;20457;-70
2021/07/06 07:16:15;;;;;;;1.87;1.60;;;;;;;;;;5074402;28;20986;-70
2021/07/06 07:18:44;;;;;;;2.70;1.60;;;;;;;;;;5074452;28;20498;-70
2021/07/06 07:21:11;;;;;;;3.00;2.10;;;;;;;;;;5073496;28;20478;-70
2021/07/06 07:23:38;;;;;;;2.23;2.00;;;;;;;;;;5073730;28;21075;-70
2021/07/06 07:26:07;;;;;;;6.60;2.00;;;;;;;;;;5073742;28;21030;-70
2021/07/06 07:28:35;;;;;;;3.30;1.77;;;;;;;;;;5073942;28;20438;-69
2021/07/06 07:31:02;;;;;;;3.10;2.27;;;;;;;;;;5074095;28;20438;-70
2021/07/06 07:33:29;;;;;;;2.30;2.10;;;;;;;;;;5073994;28;20530;-70
2021/07/06 07:35:57;;;;;;;6.67;1.90;;;;;;;;;;5073958;28;20506;-70
2021/07/06 07:38:24;;;;;;;4.00;1.73;;;;;;;;;;5073001;28;20474;-70
2021/07/06 07:40:52;;;;;;;2.37;2.13;;;;;;;;;;5073916;28;20540;-70
2021/07/06 07:43:20;;;;;;;3.87;2.33;;;;;;;;;;5074304;28;20441;-70
2021/07/06 07:45:48;;;;;;;4.30;1.50;;;;;;;;;;5073871;28;20467;-70
2021/07/06 07:48:15;;;;;;;2.60;1.80;;;;;;;;;;5073814;28;20441;-70
2021/07/06 07:50:42;;;;;;;1.90;1.80;;;;;;;;;;5073388;28;20441;-71
2021/07/06 07:53:09;;;;;;;1.73;1.63;;;;;;;;;;5073366;28;20447;-71
2021/07/06 07:55:36;;;;;;;1.77;1.33;;;;;;;;;;5073956;28;20795;-70
2021/07/06 07:58:04;;;;;;;1.90;1.70;;;;;;;;;;5073727;28;20572;-70
2021/07/06 08:00:32;;;;;;;2.40;1.77;;;;;;;;;;5073570;28;21034;-70
2021/07/06 08:02:59;;;;;;;3.17;1.73;;;;;;;;;;5073279;28;20531;-70
2021/07/06 08:05:27;;;;;;;3.53;1.90;;;;;;;;;;5073559;28;20799;-70
2021/07/06 08:07:54;;;;;;;5.47;2.07;;;;;;;;;;5072566;28;20582;-70
2021/07/06 08:10:21;;;;;;;1.93;1.57;;;;;;;;;;5073416;28;20444;-70
2021/07/06 08:12:48;;;;;;;1.70;1.60;;;;;;;;;;5073557;28;20547;-70
2021/07/06 08:15:16;;;;;;;1.77;1.67;;;;;;;;;;5073004;28;20527;-70
2021/07/06 08:17:45;;;;;;;2.43;1.80;;;;;;;;;;5073680;28;20508;-70
2021/07/06 08:20:13;;;;;;;3.70;1.80;;;;;;;;;;5073710;28;20441;-70
2021/07/06 08:22:40;;;;;;;5.93;2.10;;;;;;;;;;5073473;28;20486;-70
2021/07/06 08:25:09;;;;;;;1.80;1.70;;;;;;;;;;5073468;28;20447;-70
2021/07/06 08:27:36;;;;;;;3.67;2.00;;;;;;;;;;5073125;28;20803;-70
2021/07/06 08:30:03;;;;;;;2.27;1.60;;;;;;;;;;5072979;28;21066;-70
2021/07/06 08:32:30;;;;;;;11.03;3.67;;;;;;;;;;5076762;28;20467;-70
2021/07/06 08:35:00;;;;;;;2.13;1.83;;;;;;;;;;5077488;28;20446;-70
2021/07/06 08:37:27;;;;;;;1.80;1.70;;;;;;;;;;5077284;28;20496;-70
2021/07/06 08:39:55;;;;;;;3.80;2.03;;;;;;;;;;5076923;28;20473;-70
2021/07/06 08:42:22;;;;;;;3.53;1.97;;;;;;;;;;5077034;28;20538;-70
2021/07/06 08:44:49;;;;;;;1.90;1.80;;;;;;;;;;5076815;28;20537;-70
2021/07/06 08:47:17;;;;;;;1.90;1.80;;;;;;;;;;5077610;28;20505;-69
2021/07/06 08:49:48;;;;;;;3.87;2.50;;;;;;;;;;5077254;28;20438;-70
2021/07/06 08:52:17;;;;;;;2.30;1.97;;;;;;;;;;5077113;28;20430;-70
2021/07/06 08:54:44;;;;;;;2.00;1.90;;;;;;;;;;5077144;28;20433;-70
2021/07/06 08:57:11;;;;;;;4.50;2.03;;;;;;;;;;5076665;28;20473;-70
2021/07/06 08:59:39;;;;;;;2.70;1.60;;;;;;;;;;5077277;28;20524;-70
2021/07/06 09:02:06;;;;;;;2.83;2.63;;;;;;;;;;5076682;28;20462;-70
2021/07/06 09:04:43;;;;;;;1.90;1.80;;;;;;;;;;5076504;28;20529;-70
2021/07/06 09:07:11;;;;;;;4.33;2.40;;;;;;;;;;5076497;28;20446;-70
2021/07/06 09:09:39;;;;;;;2.30;1.60;;;;;;;;;;5076841;28;20442;-70
2021/07/06 09:12:07;;;;;;;3.07;2.23;;;;;;;;;;5076770;28;20789;-70
2021/07/06 09:14:38;;;;;;;2.20;2.00;;;;;;;;;;5076641;28;20933;-70
2021/07/06 09:17:09;;;;;;;2.03;1.80;;;;;;;;;;5076762;28;20985;-69
2021/07/06 09:19:36;;;;;;;2.23;1.87;;;;;;;;;;5076554;28;20929;-70
2021/07/06 09:22:10;;;;;;;2.60;1.97;;;;;;;;;;5077189;28;20529;-70
2021/07/06 09:24:38;;;;;;;6.43;2.30;;;;;;;;;;5076203;28;20528;-70
2021/07/06 09:30:09;;;;;;;2.23;2.13;;;;;;;;;;5112162;27;20498;-69
2021/07/06 09:32:37;;;;;;;2.67;2.47;;;;;;;;;;5100567;28;20456;-70
2021/07/06 09:35:09;;;;;;;4.03;2.87;;;;;;;;;;5091904;28;20540;-70
2021/07/06 09:37:49;;;;;;;5.23;3.27;;;;;;;;;;5091112;28;20954;-69
2021/07/06 09:40:26;;;;;;;8.90;3.90;;;;;;;;;;5090690;28;20442;-69
2021/07/06 09:43:12;;;;;;;6.10;4.40;;;;;;;;;;5092300;28;20987;-70
2021/07/06 09:45:40;;;;;;;4.33;2.93;;;;;;;;;;5099606;28;20441;-70
2021/07/06 09:48:08;;;;;;;4.27;2.33;;;;;;;;;;5103338;28;20480;-70
2021/07/06 09:50:36;;;;;;;3.37;2.53;;;;;;;;;;5112033;28;20853;-70
2021/07/06 09:53:03;;;;;;;3.27;2.30;;;;;;;;;;5092813;28;20945;-70
2021/07/06 09:55:30;;;;;;;6.57;2.67;;;;;;;;;;5090227;28;20526;-70
2021/07/06 09:57:58;;;;;;;4.17;2.30;;;;;;;;;;5090244;28;20463;-70
2021/07/06 10:00:25;;;;;;;5.23;2.73;;;;;;;;;;5098113;28;20438;-72
2021/07/06 10:03:01;;;;;;;3.13;1.80;;;;;;;;;;5090554;28;20979;-70
2021/07/06 10:05:28;;;;;;;5.20;2.07;;;;;;;;;;5091166;28;20431;-70
2021/07/06 10:07:56;;;;;;;4.13;2.33;;;;;;;;;;5090410;28;20545;-69
2021/07/06 10:10:24;;;;;;;2.50;2.00;;;;;;;;;;5090059;28;20482;-70
2021/07/06 10:12:53;;;;;;;4.87;1.53;;;;;;;;;;5090377;28;20486;-69
2021/07/06 10:15:21;;;;;;;4.07;2.60;;;;;;;;;;5090122;28;20441;-69
2021/07/06 10:17:49;;;;;;;1.93;1.73;;;;;;;;;;5090320;28;20447;-70
2021/07/06 10:20:20;;;;;;;1.70;1.60;;;;;;;;;;5090261;28;20445;-69
2021/07/06 10:22:48;;;;;;;1.90;1.80;;;;;;;;;;5090401;28;20434;-69
2021/07/06 10:25:15;;;;;;;1.70;1.60;;;;;;;;;;5090058;28;20446;-70
2021/07/06 10:27:45;;;;;;;4.50;1.93;;;;;;;;;;5089566;28;20979;-70
2021/07/06 10:30:15;;;;;;;1.70;1.60;;;;;;;;;;5090551;28;20438;-70
2021/07/06 10:32:44;;;;;;;3.03;1.80;;;;;;;;;;5102205;28;20443;-70
2021/07/06 10:35:12;;;;;;;2.53;1.90;;;;;;;;;;5110045;28;21036;-69
2021/07/06 10:37:41;;;;;;;1.60;1.33;;;;;;;;;;5110326;28;20796;-70
2021/07/06 10:40:15;;;;;;;2.60;1.83;;;;;;;;;;5103055;28;20475;-69
2021/07/06 10:42:43;;;;;;;3.00;1.43;;;;;;;;;;5096266;28;20526;-70
2021/07/06 10:45:14;;;;;;;1.70;1.60;;;;;;;;;;5097064;28;20437;-69
2021/07/06 10:47:43;;;;;;;3.27;1.40;;;;;;;;;;5089433;28;20979;-69
2021/07/06 10:50:32;;;;;;;2.23;1.30;;;;;;;;;;5079502;28;20541;-69
2021/07/06 10:56:05;;;;;;;2.10;1.77;;;;;;;;;;5111425;27;20503;-69
2021/07/06 10:58:48;;;;;;;2.03;1.50;;;;;;;;;;5111713;28;20431;-69
2021/07/06 11:01:30;;;;;;;2.93;1.60;;;;;;;;;;5111219;28;20423;-68
2021/07/06 11:03:57;;;;;;;3.83;2.97;;;;;;;;;;5111527;28;20446;-69
2021/07/06 11:06:39;;;;;;;2.13;1.50;;;;;;;;;;5111461;28;20881;-69
2021/07/06 11:09:06;;;;;;;1.83;1.67;;;;;;;;;;5102777;28;20545;-69
2021/07/06 11:11:38;;;;;;;1.63;1.53;;;;;;;;;;5111490;28;20776;-69
2021/07/06 11:14:20;;;;;;;10.17;1.80;;;;;;;;;;5092852;28;21034;-69
2021/07/06 11:16:57;;;;;;;2.37;1.50;;;;;;;;;;5090696;28;20443;-69
2021/07/06 11:19:33;;;;;;;2.27;1.70;;;;;;;;;;5090434;28;20909;-69
2021/07/06 11:22:09;;;;;;;1.60;1.50;;;;;;;;;;5090253;28;20531;-68
2021/07/06 11:24:39;;;;;;;3.53;1.60;;;;;;;;;;5090841;28;20506;-69
2021/07/06 11:27:08;;;;;;;1.70;1.57;;;;;;;;;;5090322;28;20429;-68
2021/07/06 11:29:36;;;;;;;5.37;1.53;;;;;;;;;;5090142;28;20483;-68
2021/07/06 11:32:10;;;;;;;1.70;1.60;;;;;;;;;;5092404;28;20464;-69
2021/07/06 11:34:38;;;;;;;2.00;1.57;;;;;;;;;;5098880;28;20473;-68
2021/07/06 11:37:06;;;;;;;3.67;1.80;;;;;;;;;;5103772;28;20499;-68
2021/07/06 11:39:35;;;;;;;3.47;2.67;;;;;;;;;;5110691;28;20453;-68
2021/07/06 11:42:03;;;;;;;3.43;1.60;;;;;;;;;;5096304;28;20443;-69
2021/07/06 11:44:32;;;;;;;10.80;1.93;;;;;;;;;;5110659;28;20496;-68
2021/07/06 11:47:09;;;;;;;2.90;2.13;;;;;;;;;;5110276;28;20597;-68
2021/07/06 11:49:36;;;;;;;2.90;2.00;;;;;;;;;;5110629;28;20436;-68
2021/07/06 11:52:03;;;;;;;2.90;1.70;;;;;;;;;;5107821;28;20459;-69
2021/07/06 11:54:30;;;;;;;4.33;1.70;;;;;;;;;;5098781;28;20484;-68
2021/07/06 11:57:03;;;;;;;2.23;1.30;;;;;;;;;;5098988;28;20522;-69
2021/07/06 11:59:32;;;;;;;2.63;1.80;;;;;;;;;;5110158;28;20467;-68
2021/07/06 12:02:06;;;;;;;1.60;1.43;;;;;;;;;;5093842;28;20518;-68
2021/07/06 12:04:33;;;;;;;3.53;1.73;;;;;;;;;;5090282;28;20440;-68
2021/07/06 12:07:07;;;;;;;1.87;1.70;;;;;;;;;;5077545;28;20531;-69
2021/07/06 12:09:35;;;;;;;4.03;1.50;;;;;;;;;;5076351;28;20449;-68
2021/07/06 12:12:12;;;;;;;3.57;1.40;;;;;;;;;;5076500;28;20478;-69
2021/07/06 12:14:45;;;;;;;6.50;1.97;;;;;;;;;;5076148;28;20567;-68
2021/07/06 12:17:13;;;;;;;1.93;1.83;;;;;;;;;;5075919;28;20455;-69
2021/07/06 12:19:40;;;;;;;3.23;1.77;;;;;;;;;;5076200;28;20453;-68
2021/07/06 12:22:07;;;;;;;4.13;1.60;;;;;;;;;;5076195;28;20440;-69
2021/07/06 12:24:35;;;;;;;3.67;1.50;;;;;;;;;;5076059;28;20443;-69
2021/07/06 12:27:02;;;;;;;1.30;1.20;;;;;;;;;;5080948;28;20459;-69
2021/07/06 12:29:30;;;;;;;4.10;2.00;;;;;;;;;;5095937;28;20939;-69
2021/07/06 12:31:59;;;;;;;8.23;1.60;;;;;;;;;;5096173;28;20526;-69
2021/07/06 12:34:35;;;;;;;3.43;1.80;;;;;;;;;;5095702;28;20518;-68
2021/07/06 12:37:03;;;;;;;1.30;1.20;;;;;;;;;;5095946;28;20436;-69
2021/07/06 12:39:32;;;;;;;2.30;1.73;;;;;;;;;;5096631;28;20857;-69
2021/07/06 12:42:02;;;;;;;2.50;1.70;;;;;;;;;;5095639;28;20448;-69
2021/07/06 12:44:33;;;;;;;1.53;1.30;;;;;;;;;;5095846;28;20445;-68
2021/07/06 12:47:15;;;;;;;2.50;1.10;;;;;;;;;;5095515;28;20530;-69
2021/07/06 12:49:42;;;;;;;1.60;1.40;;;;;;;;;;5095161;28;20531;-69
2021/07/06 12:52:09;;;;;;;1.57;1.47;;;;;;;;;;5095307;28;20445;-69
2021/07/06 12:54:38;;;;;;;8.90;1.87;;;;;;;;;;5095415;28;20527;-72
2021/07/06 12:57:06;;;;;;;3.07;1.40;;;;;;;;;;5086399;28;20489;-70
2021/07/06 12:59:34;;;;;;;2.10;1.30;;;;;;;;;;5075303;28;20846;-68
2021/07/06 13:02:18;;;;;;;2.27;1.40;;;;;;;;;;5074716;28;20464;-68
2021/07/06 13:04:59;;;;;;;2.30;1.50;;;;;;;;;;5075647;28;20444;-69
2021/07/06 13:07:27;;;;;;;2.70;1.70;;;;;;;;;;5074790;28;20461;-69
2021/07/06 13:10:12;;;;;;;1.20;1.10;;;;;;;;;;5074724;28;20446;-70
2021/07/06 13:12:40;;;;;;;3.73;1.40;;;;;;;;;;5074963;28;20926;-69
2021/07/06 13:15:09;;;;;;;8.27;2.37;;;;;;;;;;5074957;28;20507;-68
2021/07/06 13:17:37;;;;;;;8.67;2.40;;;;;;;;;;5073565;28;20479;-69
2021/07/06 13:20:09;;;;;;;13.70;3.30;;;;;;;;;;5086560;28;20542;-70
2021/07/06 13:22:36;;;;;;;4.50;1.57;;;;;;;;;;5074971;28;20408;-69
2021/07/06 13:25:04;;;;;;;2.50;1.53;;;;;;;;;;5075016;28;20493;-68
2021/07/06 13:27:32;;;;;;;2.03;1.50;;;;;;;;;;5074770;28;20484;-69
2021/07/06 13:30:00;;;;;;;3.20;1.30;;;;;;;;;;5074282;28;20440;-68
2021/07/06 13:32:27;;;;;;;1.30;1.20;;;;;;;;;;5073949;28;20453;-68
2021/07/06 13:34:55;;;;;;;1.80;1.70;;;;;;;;;;5074194;28;20483;-68
2021/07/06 13:37:26;;;;;;;3.03;1.70;;;;;;;;;;5074895;28;20533;-68
2021/07/06 13:39:53;;;;;;;3.90;1.77;;;;;;;;;;5074709;28;20437;-69
2021/07/06 13:42:21;;;;;;;2.00;1.43;;;;;;;;;;5083786;28;20457;-69
2021/07/06 13:44:48;;;;;;;1.37;1.27;;;;;;;;;;5094410;28;20433;-69
2021/07/06 13:47:15;;;;;;;1.47;1.33;;;;;;;;;;5087821;28;20956;-69
2021/07/06 13:49:43;;;;;;;3.47;1.47;;;;;;;;;;5074115;28;20523;-68
2021/07/06 13:52:10;;;;;;;4.63;1.40;;;;;;;;;;5074709;28;20532;-69
2021/07/06 13:54:39;;;;;;;4.50;1.30;;;;;;;;;;5074109;28;20526;-69
2021/07/06 13:57:09;;;;;;;5.13;1.23;;;;;;;;;;5073838;28;20857;-69
2021/07/06 13:59:36;;;;;;;2.90;1.30;;;;;;;;;;5073863;28;20491;-69
2021/07/06 14:02:04;;;;;;;1.47;1.27;;;;;;;;;;5073846;28;20473;-69
2021/07/06 14:04:31;;;;;;;1.47;1.30;;;;;;;;;;5074049;28;20441;-70
2021/07/06 14:06:59;;;;;;;4.03;1.57;;;;;;;;;;5074085;28;20899;-70
2021/07/06 14:09:26;;;;;;;1.70;1.30;;;;;;;;;;5073701;28;21009;-69
2021/07/06 14:11:54;;;;;;;1.73;1.47;;;;;;;;;;5073674;28;20550;-69
2021/07/06 14:14:22;;;;;;;2.20;1.53;;;;;;;;;;5073606;28;20446;-69
2021/07/06 14:16:49;;;;;;;2.60;1.60;;;;;;;;;;5073806;28;20481;-68
2021/07/06 14:19:16;;;;;;;1.20;1.10;;;;;;;;;;5073789;28;20507;-69
2021/07/06 14:21:43;;;;;;;1.70;1.30;;;;;;;;;;5073772;28;20528;-68
2021/07/06 14:24:11;;;;;;;1.77;1.60;;;;;;;;;;5091922;28;20449;-68
2021/07/06 14:26:38;;;;;;;4.30;1.40;;;;;;;;;;5093690;28;20484;-68
2021/07/06 14:29:06;;;;;;;1.50;1.33;;;;;;;;;;5093866;28;20805;-68
2021/07/06 14:31:34;;;;;;;7.23;1.70;;;;;;;;;;5093284;28;20950;-70
2021/07/06 14:34:01;;;;;;;2.13;1.30;;;;;;;;;;5093771;28;20500;-68
2021/07/06 14:36:28;;;;;;;2.47;1.60;;;;;;;;;;5093831;28;20561;-68
2021/07/06 14:38:55;;;;;;;2.10;1.20;;;;;;;;;;5093790;28;20928;-68
2021/07/06 14:41:23;;;;;;;2.27;1.33;;;;;;;;;;5093457;28;20524;-69
2021/07/06 14:43:50;;;;;;;5.13;1.30;;;;;;;;;;5093386;28;20526;-68
2021/07/06 14:46:19;;;;;;;1.70;1.37;;;;;;;;;;5091017;28;20445;-69
2021/07/06 14:48:46;;;;;;;4.83;1.50;;;;;;;;;;5086535;28;20441;-68
2021/07/06 14:51:13;;;;;;;2.13;1.20;;;;;;;;;;5085744;28;20484;-68
2021/07/06 14:53:40;;;;;;;2.33;1.20;;;;;;;;;;5073191;28;20483;-69
2021/07/06 14:56:08;;;;;;;2.07;1.63;;;;;;;;;;5086312;28;20460;-68